Time;durP1;ratioP1;P1;durP2;ratioP2;P2;SDS_P1;SDS_P2;PMS_P1;PMS_P2;Temp;Humidity;BMP_temperature;BMP_pressure;BME280_temperature;BME280_humidity;BME280_pressure;Samples;Min_cycle;Max_cycle;Signal;HPM_P1;HPM_P2
2023/01/29 00:00:08;;;;;;;285.67;11.02;;;;;;;3.11;100.00;99074.38;5031458;28;20548;-54
2023/01/29 00:02:37;;;;;;;319.85;13.30;;;;;;;4.02;100.00;99077.31;5029352;28;20079;-56
2023/01/29 00:05:04;;;;;;;262.02;10.52;;;;;;;3.72;100.00;99075.28;5030373;28;20083;-55
2023/01/29 00:07:30;;;;;;;306.83;13.05;;;;;;;3.57;100.00;99062.66;5031429;28;20037;-55
2023/01/29 00:09:55;;;;;;;293.95;11.75;;;;;;;2.88;100.00;99079.38;5030461;28;20035;-54
2023/01/29 00:12:21;;;;;;;243.20;10.13;;;;;;;2.51;100.00;99072.56;5031746;28;20041;-54
2023/01/29 00:14:46;;;;;;;249.05;10.50;;;;;;;3.13;100.00;99077.91;5032401;28;20036;-55
2023/01/29 00:17:11;;;;;;;195.27;9.43;;;;;;;2.88;100.00;99074.25;5029326;28;20739;-54
2023/01/29 00:19:37;;;;;;;278.38;10.07;;;;;;;2.86;100.00;99066.47;5031475;28;20108;-54
2023/01/29 00:22:03;;;;;;;261.45;12.25;;;;;;;3.80;100.00;99061.81;5029178;28;20546;-55
2023/01/29 00:24:28;;;;;;;182.73;9.32;;;;;;;2.47;100.00;99074.09;5032573;28;20375;-54
2023/01/29 00:26:53;;;;;;;210.23;9.90;;;;;;;2.71;100.00;99071.78;5031631;28;20084;-54
2023/01/29 00:29:20;;;;;;;217.45;10.20;;;;;;;2.76;100.00;99071.13;5031658;28;20032;-54
2023/01/29 00:31:46;;;;;;;199.93;9.40;;;;;;;2.88;100.00;99052.78;5029101;28;20037;-57
2023/01/29 00:34:11;;;;;;;188.95;9.70;;;;;;;2.41;100.00;99066.13;5030989;28;20541;-54
2023/01/29 00:36:36;;;;;;;179.73;9.90;;;;;;;1.94;100.00;99064.78;5028926;28;20045;-56
2023/01/29 00:39:09;;;;;;;186.75;9.57;;;;;;;2.60;100.00;99058.44;5030328;28;20083;-55
2023/01/29 00:47:29;;;;;;;258.92;8.75;;;;;;;2.44;100.00;99048.28;5029870;28;20060;-55
2023/01/29 00:49:49;;;;;;;215.88;8.07;;;;;;;2.50;100.00;99050.25;5032541;28;20143;-54
2023/01/29 00:52:24;;;;;;;170.18;8.80;;;;;;;2.41;100.00;99051.59;5010690;28;20041;-54
2023/01/29 00:54:50;;;;;;;241.88;10.88;;;;;;;2.69;100.00;99047.72;5031815;28;20025;-54
2023/01/29 00:57:16;;;;;;;192.48;8.30;;;;;;;2.91;100.00;99042.66;5031705;28;20052;-54
2023/01/29 00:59:41;;;;;;;241.48;10.40;;;;;;;2.65;100.00;99055.22;5029815;28;20024;-55
2023/01/29 01:04:51;;;;;;;253.02;10.77;;;;;;;3.43;100.00;99038.91;5030318;28;20126;-55
2023/01/29 01:07:16;;;;;;;247.23;10.13;;;;;;;3.68;100.00;99042.50;5031994;28;20120;-55
2023/01/29 01:12:27;;;;;;;184.13;9.52;;;;;;;3.24;100.00;99048.38;5032394;28;20124;-56
2023/01/29 01:14:52;;;;;;;217.23;9.38;;;;;;;3.16;100.00;99043.75;5029355;28;20524;-56
2023/01/29 01:17:17;;;;;;;244.23;10.80;;;;;;;3.06;100.00;99048.50;5030257;28;20045;-56
2023/01/29 01:19:43;;;;;;;258.98;10.88;;;;;;;2.80;100.00;99055.94;5029117;28;20445;-56
2023/01/29 01:22:08;;;;;;;181.95;9.18;;;;;;;3.06;100.00;99058.78;5033752;28;20056;-55
2023/01/29 01:24:34;;;;;;;170.25;8.18;;;;;;;2.38;100.00;99054.03;5035196;28;20033;-59
2023/01/29 01:26:59;;;;;;;209.82;10.13;;;;;;;2.29;100.00;99059.59;5034199;28;20036;-56
2023/01/29 01:29:24;;;;;;;214.60;7.63;;;;;;;1.66;100.00;99060.00;5035823;28;20060;-56
2023/01/29 01:31:52;;;;;;;178.90;8.43;;;;;;;2.75;100.00;99053.94;5031579;28;20064;-58
2023/01/29 01:34:18;;;;;;;212.20;10.02;;;;;;;2.76;100.00;99043.75;5034882;28;20057;-56
2023/01/29 01:36:43;;;;;;;205.50;10.00;;;;;;;2.52;100.00;99049.50;5035564;28;20938;-53
2023/01/29 01:39:08;;;;;;;196.18;8.68;;;;;;;2.67;100.00;99044.19;5036070;28;20058;-54
2023/01/29 01:41:34;;;;;;;240.00;10.88;;;;;;;1.94;100.00;99048.53;5034971;28;20037;-54
2023/01/29 01:44:01;;;;;;;224.32;8.85;;;;;;;2.65;100.00;99050.97;5033827;28;20025;-55
2023/01/29 01:46:35;;;;;;;278.25;11.30;;;;;;;2.84;100.00;99056.94;5028259;28;20101;-55
2023/01/29 01:49:20;;;;;;;217.98;9.02;;;;;;;1.90;100.00;99057.75;5035820;28;20824;-56
2023/01/29 01:51:50;;;;;;;190.75;7.30;;;;;;;1.41;100.00;99057.09;5031228;28;20105;-55
2023/01/29 01:54:24;;;;;;;201.82;9.43;;;;;;;2.26;100.00;99051.75;5036948;28;20041;-54
2023/01/29 01:56:54;;;;;;;180.00;8.85;;;;;;;2.13;100.00;99045.16;5036490;28;20044;-55
2023/01/29 01:59:21;;;;;;;177.60;6.30;;;;;;;1.07;100.00;99050.25;5034019;28;20055;-56
2023/01/29 02:01:52;;;;;;;171.30;8.55;;;;;;;1.65;100.00;99054.00;5035117;28;20037;-56
2023/01/29 02:10:10;;;;;;;198.05;10.00;;;;;;;2.50;100.00;99053.72;5037695;28;20188;-54
2023/01/29 02:12:37;;;;;;;177.02;6.50;;;;;;;1.26;100.00;99059.75;5036045;28;20813;-56
2023/01/29 02:15:04;;;;;;;213.25;10.25;;;;;;;1.63;100.00;99055.59;5033986;28;20026;-54
2023/01/29 02:17:30;;;;;;;260.33;10.52;;;;;;;1.61;100.00;99054.66;5033462;28;20080;-54
2023/01/29 02:20:02;;;;;;;219.25;9.82;;;;;;;1.40;100.00;99060.47;5037010;28;20029;-54
2023/01/29 02:22:36;;;;;;;235.32;10.23;;;;;;;1.45;100.00;99047.00;5036576;28;20049;-55
2023/01/29 02:25:21;;;;;;;187.73;9.02;;;;;;;1.93;100.00;99054.50;5036463;28;20029;-54
2023/01/29 02:27:47;;;;;;;206.73;9.40;;;;;;;2.45;100.00;99058.63;5037405;28;20123;-55
2023/01/29 02:30:36;;;;;;;200.88;8.73;;;;;;;1.66;100.00;99053.19;5018241;28;20076;-55
2023/01/29 02:33:21;;;;;;;168.38;8.05;;;;;;;1.13;100.00;99055.69;5035421;28;20388;-54
2023/01/29 02:36:09;;;;;;;239.82;10.77;;;;;;;2.72;100.00;99042.72;5036191;28;20064;-55
2023/01/29 02:38:54;;;;;;;188.70;9.63;;;;;;;2.68;100.00;99038.25;5035069;28;20116;-55
2023/01/29 02:41:37;;;;;;;203.48;9.68;;;;;;;2.09;100.00;99040.69;5035244;28;20133;-54
2023/01/29 02:44:05;;;;;;;194.05;10.65;;;;;;;3.16;100.00;99034.34;5035549;28;20029;-55
2023/01/29 02:46:56;;;;;;;196.63;7.47;;;;;;;2.53;100.00;99040.13;5035347;28;20041;-55
2023/01/29 02:49:31;;;;;;;154.05;8.40;;;;;;;2.97;100.00;99028.38;5036423;28;20025;-56
2023/01/29 02:52:16;;;;;;;194.23;10.57;;;;;;;3.03;100.00;99029.47;5036394;28;20041;-56
2023/01/29 02:54:49;;;;;;;212.00;9.15;;;;;;;2.20;100.00;99039.50;5037332;28;20105;-55
2023/01/29 02:57:22;;;;;;;212.10;11.32;;;;;;;1.89;100.00;99034.63;5035624;28;20037;-57
2023/01/29 02:59:58;;;;;;;210.82;10.50;;;;;;;2.28;100.00;99034.75;5036472;28;20148;-54
2023/01/29 03:02:34;;;;;;;246.98;11.77;;;;;;;2.49;100.00;99038.22;5035819;28;20033;-54
2023/01/29 03:05:03;;;;;;;192.40;11.82;;;;;;;2.19;100.00;99048.00;5034420;28;20052;-55
2023/01/29 03:07:44;;;;;;;244.77;12.82;;;;;;;1.39;100.00;99043.34;5034826;28;20514;-54
2023/01/29 03:10:34;;;;;;;142.23;9.50;;;;;;;2.33;100.00;99043.53;5037200;28;20025;-55
2023/01/29 03:13:07;;;;;;;231.60;11.90;;;;;;;2.19;100.00;99053.16;5036492;28;20340;-54
2023/01/29 03:15:41;;;;;;;232.65;10.20;;;;;;;2.00;100.00;99053.09;5035034;28;20068;-54
2023/01/29 03:18:26;;;;;;;178.93;8.88;;;;;;;1.67;100.00;99052.38;5036943;28;20025;-54
2023/01/29 03:20:57;;;;;;;219.65;13.57;;;;;;;2.14;100.00;99064.00;5034071;28;20028;-56
2023/01/29 03:34:40;;;;;;;203.63;12.32;;;;;;;1.57;100.00;99057.88;5037430;28;20634;-55
2023/01/29 03:37:12;;;;;;;146.23;9.52;;;;;;;1.47;100.00;99065.91;5035617;28;20037;-54
2023/01/29 03:39:38;;;;;;;220.07;11.82;;;;;;;1.45;100.00;99070.06;5035583;28;20072;-56
2023/01/29 03:42:15;;;;;;;218.00;13.23;;;;;;;1.76;100.00;99071.59;5033007;28;21270;-54
2023/01/29 03:44:41;;;;;;;173.73;8.52;;;;;;;1.21;100.00;99074.03;5034508;28;20024;-56
2023/01/29 03:47:15;;;;;;;183.00;10.70;;;;;;;1.51;100.00;99068.69;5034428;28;20037;-55
2023/01/29 03:49:51;;;;;;;240.13;11.13;;;;;;;1.15;100.00;99069.47;5034282;28;20060;-56
2023/01/29 03:52:27;;;;;;;226.00;8.43;;;;;;;0.98;100.00;99067.72;5035213;28;20040;-57
2023/01/29 03:55:00;;;;;;;200.50;11.35;;;;;;;2.46;100.00;99067.22;5033779;28;20029;-55
2023/01/29 03:57:59;;;;;;;246.18;11.23;;;;;;;2.51;100.00;99064.84;5033708;28;20507;-56
2023/01/29 04:00:33;;;;;;;213.23;9.95;;;;;;;2.80;100.00;99055.94;5034177;28;20045;-56
2023/01/29 04:03:01;;;;;;;213.93;11.82;;;;;;;2.58;100.00;99070.38;5035549;28;20115;-55
2023/01/29 04:05:36;;;;;;;211.75;10.05;;;;;;;2.36;100.00;99072.72;5033892;28;20028;-55
2023/01/29 04:08:08;;;;;;;220.27;11.70;;;;;;;3.20;100.00;99076.50;5035820;28;20039;-54
2023/01/29 04:10:37;;;;;;;245.05;9.02;;;;;;;1.94;100.00;99080.19;5033990;28;20075;-54
2023/01/29 04:13:10;;;;;;;225.48;10.20;;;;;;;2.56;100.00;99071.09;5034026;28;20017;-56
2023/01/29 04:15:42;;;;;;;191.50;11.52;;;;;;;2.85;100.00;99079.25;5034847;28;20976;-55
2023/01/29 04:18:08;;;;;;;171.02;8.77;;;;;;;1.77;100.00;99081.94;5035674;28;20024;-56
2023/01/29 04:20:34;;;;;;;180.05;9.90;;;;;;;1.86;100.00;99086.66;5034306;28;20059;-55
2023/01/29 04:23:00;;;;;;;177.20;10.20;;;;;;;2.41;100.00;99086.69;5033810;28;20025;-55
2023/01/29 04:25:34;;;;;;;205.05;12.02;;;;;;;3.03;100.00;99080.88;5033719;28;20103;-55
2023/01/29 04:28:14;;;;;;;228.25;12.13;;;;;;;1.56;100.00;99086.91;5035730;28;20051;-54
2023/01/29 04:31:09;;;;;;;183.50;10.75;;;;;;;2.13;100.00;99081.09;5034626;28;20072;-55
2023/01/29 04:34:02;;;;;;;211.63;7.72;;;;;;;2.44;100.00;99071.38;5034606;28;20529;-55
2023/01/29 04:36:55;;;;;;;165.65;7.38;;;;;;;1.78;100.00;99070.00;5034652;28;20044;-54
2023/01/29 04:39:27;;;;;;;162.55;8.85;;;;;;;2.38;100.00;99059.16;5034264;28;20651;-55
2023/01/29 04:42:21;;;;;;;174.00;7.13;;;;;;;1.52;100.00;99064.47;5034592;28;20037;-54
2023/01/29 04:44:58;;;;;;;180.88;10.23;;;;;;;2.41;100.00;99061.84;5033465;28;20365;-54
2023/01/29 04:47:37;;;;;;;214.60;11.35;;;;;;;2.47;100.00;99072.44;5034783;28;20150;-54
2023/01/29 04:50:15;;;;;;;195.30;11.48;;;;;;;1.98;100.00;99085.50;5035226;28;20067;-56
2023/01/29 04:53:13;;;;;;;171.50;7.97;;;;;;;1.76;100.00;99089.56;5035738;28;20037;-54
2023/01/29 04:55:41;;;;;;;164.50;8.35;;;;;;;1.15;100.00;99076.28;5033119;28;20037;-55
2023/01/29 04:58:14;;;;;;;200.05;10.88;;;;;;;1.80;100.00;99076.09;5038615;28;20032;-54
2023/01/29 05:00:43;;;;;;;194.00;8.57;;;;;;;1.69;100.00;99067.84;5037185;28;20495;-55
2023/01/29 05:03:12;;;;;;;221.35;11.75;;;;;;;2.06;100.00;99068.78;5036278;28;20033;-56
2023/01/29 05:05:41;;;;;;;248.90;12.82;;;;;;;2.56;100.00;99061.69;5037241;28;20035;-53
2023/01/29 05:08:10;;;;;;;186.13;8.90;;;;;;;1.88;100.00;99059.38;5037468;28;20051;-54
2023/01/29 05:10:37;;;;;;;261.58;12.73;;;;;;;2.28;100.00;99051.81;5017154;28;20030;-53
2023/01/29 05:13:07;;;;;;;192.73;10.52;;;;;;;2.15;100.00;99051.25;5036235;28;20037;-54
2023/01/29 05:15:49;;;;;;;210.40;9.07;;;;;;;1.68;100.00;99051.56;5038413;28;20521;-54
2023/01/29 05:18:14;;;;;;;207.73;10.20;;;;;;;2.52;100.00;99059.78;5037833;28;20036;-53
2023/01/29 05:20:42;;;;;;;171.55;10.13;;;;;;;2.15;100.00;99056.38;5037541;28;20033;-54
2023/01/29 05:23:15;;;;;;;175.60;8.52;;;;;;;1.52;100.00;99052.50;5037022;28;20029;-54
2023/01/29 05:25:40;;;;;;;165.18;6.60;;;;;;;1.72;100.00;99062.88;5037623;28;20037;-54
2023/01/29 05:28:07;;;;;;;228.32;12.60;;;;;;;2.85;100.00;99062.16;5038514;28;20024;-54
2023/01/29 05:30:35;;;;;;;236.15;10.02;;;;;;;2.76;100.00;99058.28;5037677;28;20124;-54
2023/01/29 05:33:01;;;;;;;220.13;9.93;;;;;;;2.69;100.00;99047.72;5036948;28;20663;-53
2023/01/29 05:35:27;;;;;;;171.20;9.13;;;;;;;2.65;100.00;99040.69;5037774;28;20028;-53
2023/01/29 05:37:54;;;;;;;186.70;8.18;;;;;;;0.98;100.00;99040.41;5037846;28;20049;-54
2023/01/29 05:40:20;;;;;;;198.75;11.00;;;;;;;1.81;100.00;99042.81;5036607;28;20073;-54
2023/01/29 05:42:45;;;;;;;210.75;10.75;;;;;;;2.39;100.00;99036.91;5036963;28;20975;-53
2023/01/29 05:45:10;;;;;;;186.43;10.88;;;;;;;2.65;100.00;99035.56;5037452;28;20024;-54
2023/01/29 05:47:36;;;;;;;174.73;9.18;;;;;;;1.24;100.00;99028.06;5038109;28;20931;-54
2023/01/29 05:50:01;;;;;;;188.20;8.52;;;;;;;1.67;100.00;99026.75;5036106;28;20686;-55
2023/01/29 05:52:26;;;;;;;207.90;10.35;;;;;;;2.25;100.00;99008.91;5037407;28;20033;-55
2023/01/29 05:54:52;;;;;;;209.55;10.13;;;;;;;1.17;100.00;99019.19;5038605;28;20032;-55
2023/01/29 05:57:17;;;;;;;152.25;9.95;;;;;;;1.77;100.00;99016.91;5036859;28;20518;-55
2023/01/29 05:59:42;;;;;;;271.30;11.77;;;;;;;1.34;100.00;99008.88;5038675;28;20084;-55
2023/01/29 06:02:08;;;;;;;191.98;10.07;;;;;;;0.75;100.00;99003.34;5036688;28;20068;-55
2023/01/29 06:04:33;;;;;;;230.05;12.82;;;;;;;1.73;100.00;99013.34;5038948;28;20056;-54
2023/01/29 06:07:00;;;;;;;174.98;7.45;;;;;;;1.57;100.00;99011.72;5034716;28;20720;-56
2023/01/29 06:09:25;;;;;;;201.23;10.38;;;;;;;1.28;100.00;99009.47;5036928;28;20028;-54
2023/01/29 06:11:50;;;;;;;203.18;10.70;;;;;;;2.51;100.00;99010.91;5033043;28;20041;-54
2023/01/29 06:14:16;;;;;;;214.68;11.73;;;;;;;1.47;100.00;99015.50;5036396;28;20021;-56
2023/01/29 06:16:41;;;;;;;156.00;8.77;;;;;;;1.87;100.00;99016.59;5034427;28;20941;-56
2023/01/29 06:19:06;;;;;;;230.40;11.25;;;;;;;2.41;100.00;99014.78;5036675;28;20862;-55
2023/01/29 06:21:32;;;;;;;235.95;12.52;;;;;;;2.05;100.00;99023.41;5034924;28;20099;-56
2023/01/29 06:23:57;;;;;;;187.23;9.13;;;;;;;3.36;100.00;99016.31;5037730;28;20094;-54
2023/01/29 06:26:22;;;;;;;195.55;10.23;;;;;;;3.45;100.00;99014.13;5036559;28;20550;-56
2023/01/29 06:28:49;;;;;;;214.35;9.90;;;;;;;3.74;100.00;99019.59;5037118;28;20032;-55
2023/01/29 06:31:14;;;;;;;196.02;10.40;;;;;;;3.55;100.00;99017.06;5037346;28;20041;-56
2023/01/29 06:33:40;;;;;;;200.55;9.13;;;;;;;2.54;100.00;99026.47;5035500;28;20061;-54
2023/01/29 06:36:05;;;;;;;175.15;8.80;;;;;;;2.65;100.00;99015.00;5037428;28;20048;-54
2023/01/29 06:38:31;;;;;;;249.13;12.55;;;;;;;2.71;100.00;99019.53;5035972;28;20029;-55
2023/01/29 06:40:57;;;;;;;195.38;11.40;;;;;;;1.89;100.00;99027.78;5036326;28;20146;-54
2023/01/29 06:43:23;;;;;;;200.60;11.02;;;;;;;2.64;100.00;99028.66;5036165;28;20029;-54
2023/01/29 06:45:56;;;;;;;144.52;8.68;;;;;;;2.71;100.00;99027.25;5037455;28;20131;-55
2023/01/29 06:48:23;;;;;;;200.82;10.13;;;;;;;2.25;100.00;99036.28;5036190;28;20108;-54
2023/01/29 06:50:48;;;;;;;168.00;8.50;;;;;;;2.44;100.00;99036.34;5034473;28;20029;-53
2023/01/29 06:53:14;;;;;;;158.98;10.32;;;;;;;3.25;100.00;99023.56;5036537;28;20025;-54
2023/01/29 06:55:41;;;;;;;207.30;11.50;;;;;;;2.56;100.00;99035.16;5035486;28;20036;-54
2023/01/29 06:58:08;;;;;;;217.73;11.55;;;;;;;3.06;100.00;99043.34;5036431;28;20391;-54
2023/01/29 07:00:34;;;;;;;131.82;9.05;;;;;;;3.06;100.00;99052.75;5032623;28;20079;-54
2023/01/29 07:03:00;;;;;;;152.45;7.43;;;;;;;2.31;100.00;99046.84;5035527;28;20025;-57
2023/01/29 07:05:25;;;;;;;181.48;9.82;;;;;;;2.07;100.00;99050.00;5036649;28;20036;-57
2023/01/29 07:07:50;;;;;;;233.57;11.13;;;;;;;2.47;100.00;99051.88;5035554;28;20113;-56
2023/01/29 07:10:16;;;;;;;210.02;11.25;;;;;;;2.25;100.00;99055.13;5035178;28;20040;-57
2023/01/29 07:12:41;;;;;;;179.38;10.05;;;;;;;2.04;100.00;99050.72;5035935;28;20143;-56
2023/01/29 07:15:07;;;;;;;208.93;7.57;;;;;;;1.86;100.00;99053.31;5036311;28;20065;-56
2023/01/29 07:17:32;;;;;;;189.25;7.85;;;;;;;1.56;100.00;99058.69;5035324;28;20705;-56
2023/01/29 07:19:58;;;;;;;177.50;9.95;;;;;;;1.80;100.00;99063.25;5034587;28;20473;-56
2023/01/29 07:22:23;;;;;;;209.27;9.38;;;;;;;0.91;100.00;99071.63;5036184;28;20639;-56
2023/01/29 07:24:49;;;;;;;238.23;10.88;;;;;;;1.52;100.00;99057.63;5036000;28;20582;-56
2023/01/29 07:27:14;;;;;;;216.02;11.27;;;;;;;1.63;100.00;99057.31;5034823;28;20041;-56
2023/01/29 07:29:39;;;;;;;246.95;11.25;;;;;;;1.04;100.00;99057.78;5035343;28;20032;-53
2023/01/29 07:32:06;;;;;;;148.48;10.20;;;;;;;1.66;100.00;99054.88;5035304;28;20048;-54
2023/01/29 07:34:32;;;;;;;178.30;8.07;;;;;;;1.52;100.00;99054.22;5036494;28;20401;-54
2023/01/29 07:36:58;;;;;;;222.60;9.82;;;;;;;1.49;100.00;99067.72;5036271;28;20772;-54
2023/01/29 07:39:23;;;;;;;192.07;10.18;;;;;;;1.49;100.00;99070.28;5036631;28;20033;-54
2023/01/29 07:41:48;;;;;;;197.70;9.13;;;;;;;0.59;100.00;99061.44;5036123;28;20040;-54
2023/01/29 07:44:14;;;;;;;195.35;11.27;;;;;;;0.95;100.00;99055.63;5035084;28;20060;-56
2023/01/29 07:46:39;;;;;;;215.10;8.00;;;;;;;1.28;100.00;99050.47;5034825;28;20042;-57
2023/01/29 07:49:04;;;;;;;199.57;9.30;;;;;;;2.02;100.00;99054.94;5034228;28;20025;-55
2023/01/29 07:51:30;;;;;;;184.23;11.18;;;;;;;2.43;100.00;99060.25;5034811;28;20099;-54
2023/01/29 07:53:55;;;;;;;218.82;11.85;;;;;;;1.95;100.00;99065.69;5034796;28;20022;-53
2023/01/29 07:56:20;;;;;;;211.93;12.00;;;;;;;2.86;100.00;99063.91;5034377;28;20036;-53
2023/01/29 07:58:46;;;;;;;191.85;11.27;;;;;;;3.24;100.00;99068.97;5035073;28;20048;-56
2023/01/29 08:01:11;;;;;;;272.70;14.20;;;;;;;2.93;100.00;99074.47;5032452;28;20068;-55
2023/01/29 08:03:37;;;;;;;189.13;11.48;;;;;;;2.91;100.00;99084.66;5030688;28;20020;-56
2023/01/29 08:06:02;;;;;;;180.45;10.43;;;;;;;2.91;100.00;99082.09;5037036;28;20235;-54
2023/01/29 08:08:28;;;;;;;185.07;11.45;;;;;;;3.18;100.00;99089.28;5037404;28;20507;-55
2023/01/29 08:10:53;;;;;;;148.27;9.50;;;;;;;3.04;100.00;99090.38;5036730;28;20029;-55
2023/01/29 08:13:19;;;;;;;183.75;8.02;;;;;;;2.62;100.00;99091.94;5037519;28;20032;-56
2023/01/29 08:15:44;;;;;;;184.05;11.43;;;;;;;2.82;100.00;99094.53;5037637;28;20039;-55
2023/01/29 08:18:10;;;;;;;184.27;10.93;;;;;;;2.78;100.00;99092.66;5017975;28;20142;-56
2023/01/29 08:20:36;;;;;;;147.15;9.98;;;;;;;3.44;100.00;99094.69;5037477;28;20065;-55
2023/01/29 08:23:05;;;;;;;268.52;12.60;;;;;;;3.51;100.00;99093.25;5036805;28;20029;-56
2023/01/29 08:25:31;;;;;;;246.30;12.55;;;;;;;2.43;100.00;99100.47;5034687;28;20043;-56
2023/01/29 08:27:58;;;;;;;228.15;13.18;;;;;;;2.62;100.00;99107.34;5033105;28;20028;-56
2023/01/29 08:30:31;;;;;;;142.25;9.77;;;;;;;2.11;100.00;99103.25;5033625;28;20053;-55
2023/01/29 08:32:57;;;;;;;173.68;10.85;;;;;;;2.25;100.00;99105.59;5036482;28;20028;-54
2023/01/29 08:35:23;;;;;;;133.70;9.30;;;;;;;2.46;100.00;99101.47;5020430;28;20025;-55
2023/01/29 08:37:53;;;;;;;179.77;11.00;;;;;;;2.32;100.00;99098.28;5037543;28;20450;-54
2023/01/29 08:40:18;;;;;;;130.00;9.38;;;;;;;2.60;100.00;99096.13;5036012;28;20033;-55
2023/01/29 08:42:43;;;;;;;189.52;10.68;;;;;;;2.91;100.00;99094.94;5037199;28;20025;-54
2023/01/29 08:45:09;;;;;;;196.85;10.80;;;;;;;2.54;100.00;99088.13;5037445;28;20035;-54
2023/01/29 08:47:35;;;;;;;139.90;7.00;;;;;;;1.98;100.00;99099.22;5037543;28;20037;-53
2023/01/29 08:50:00;;;;;;;177.55;10.82;;;;;;;2.39;100.00;99099.44;5037268;28;20107;-55
2023/01/29 08:52:25;;;;;;;155.88;9.07;;;;;;;2.40;100.00;99100.31;5036151;28;20391;-54
2023/01/29 08:54:51;;;;;;;144.98;10.52;;;;;;;3.16;100.00;99098.63;5035273;28;20017;-56
2023/01/29 08:57:16;;;;;;;148.10;11.13;;;;;;;3.83;100.00;99105.72;5035533;28;20037;-55
2023/01/29 08:59:41;;;;;;;186.02;12.27;;;;;;;3.40;100.00;99108.22;5037248;28;20142;-54
2023/01/29 09:02:09;;;;;;;194.70;9.52;;;;;;;4.11;100.00;99094.84;5035515;28;20517;-56
2023/01/29 09:04:35;;;;;;;142.43;11.77;;;;;;;4.12;100.00;99088.88;5036237;28;20029;-56
2023/01/29 09:07:00;;;;;;;137.70;8.52;;;;;;;3.81;100.00;99084.16;5037457;28;20037;-55
2023/01/29 09:09:25;;;;;;;149.32;6.97;;;;;;;3.24;100.00;99081.81;5035579;28;20029;-56
2023/01/29 09:11:51;;;;;;;154.40;8.68;;;;;;;4.14;100.00;99086.38;5036354;28;20076;-55
2023/01/29 09:14:16;;;;;;;210.80;12.60;;;;;;;4.91;100.00;99083.31;5037172;28;20711;-55
2023/01/29 09:16:41;;;;;;;185.98;12.48;;;;;;;4.81;100.00;99087.25;5036159;28;20614;-56
2023/01/29 09:19:07;;;;;;;114.38;6.38;;;;;;;4.35;100.00;99075.16;5037065;28;20095;-55
2023/01/29 09:21:32;;;;;;;219.90;13.10;;;;;;;4.33;100.00;99077.69;5035904;28;20049;-56
2023/01/29 09:23:58;;;;;;;172.65;12.77;;;;;;;4.94;100.00;99090.28;5035991;28;20044;-56
2023/01/29 09:26:23;;;;;;;145.95;8.93;;;;;;;3.82;100.00;99088.53;5036686;28;20079;-56
2023/01/29 09:28:48;;;;;;;150.52;9.07;;;;;;;3.45;100.00;99098.13;5037164;28;20060;-55
2023/01/29 09:31:14;;;;;;;150.40;9.23;;;;;;;3.34;100.00;99095.09;5037091;28;20036;-55
2023/01/29 09:33:39;;;;;;;162.05;10.07;;;;;;;4.30;100.00;99085.28;5037655;28;20025;-55
2023/01/29 09:36:05;;;;;;;176.93;7.18;;;;;;;3.82;100.00;99073.09;5035861;28;20037;-55
2023/01/29 09:38:30;;;;;;;172.80;8.90;;;;;;;3.90;100.00;99072.56;5035623;28;20029;-57
2023/01/29 09:41:14;;;;;;;169.75;9.68;;;;;;;3.51;100.00;99070.09;5017394;28;20041;-54
2023/01/29 09:43:47;;;;;;;140.13;9.38;;;;;;;4.17;100.00;99063.31;5039656;28;20022;-56
2023/01/29 09:46:19;;;;;;;158.88;7.25;;;;;;;4.34;100.00;99063.13;5039525;28;20134;-54
2023/01/29 09:48:46;;;;;;;133.98;8.00;;;;;;;4.65;100.00;99065.19;5034075;28;20036;-55
2023/01/29 09:51:39;;;;;;;133.75;7.93;;;;;;;4.55;100.00;99063.94;5037341;28;20038;-55
2023/01/29 09:54:16;;;;;;;218.20;10.35;;;;;;;4.85;100.00;99061.56;5037073;28;20029;-55
2023/01/29 09:56:44;;;;;;;164.60;9.85;;;;;;;6.39;100.00;99064.19;5037684;28;20048;-56
2023/01/29 09:59:11;;;;;;;211.98;11.13;;;;;;;5.70;100.00;99058.50;5038225;28;20053;-56
2023/01/29 10:02:05;;;;;;;178.88;8.43;;;;;;;4.65;100.00;99049.72;5038318;28;20033;-55
2023/01/29 10:04:47;;;;;;;149.40;8.55;;;;;;;4.28;100.00;99046.56;5039148;28;20029;-57
2023/01/29 10:07:34;;;;;;;187.75;8.90;;;;;;;3.74;100.00;99042.75;5038968;28;20033;-55
2023/01/29 10:10:15;;;;;;;173.70;9.40;;;;;;;4.33;100.00;99045.88;5039787;28;20116;-55
2023/01/29 10:13:25;;;;;;;139.60;10.65;;;;;;;4.77;100.00;99053.56;5038917;28;20372;-56
2023/01/29 10:15:54;;;;;;;173.00;10.73;;;;;;;5.44;100.00;99043.00;4995693;28;20064;-55
2023/01/29 10:18:25;;;;;;;153.45;9.65;;;;;;;5.03;100.00;99048.47;5035680;28;20021;-54
2023/01/29 10:20:59;;;;;;;137.10;12.85;;;;;;;4.68;100.00;99054.09;5038398;28;20052;-54
2023/01/29 10:23:30;;;;;;;172.60;10.35;;;;;;;4.87;100.00;99050.50;5038446;28;20383;-53
2023/01/29 10:25:55;;;;;;;133.95;7.30;;;;;;;4.25;100.00;99045.59;5038052;28;20046;-54
2023/01/29 10:28:37;;;;;;;152.90;9.35;;;;;;;4.08;100.00;99035.50;5036899;28;20669;-56
2023/01/29 10:31:16;;;;;;;144.00;8.88;;;;;;;4.56;100.00;99031.31;5031516;28;20557;-56
2023/01/29 10:33:49;;;;;;;167.20;7.47;;;;;;;5.43;100.00;99036.09;5018352;28;20445;-56
2023/01/29 10:36:21;;;;;;;167.43;11.27;;;;;;;5.82;100.00;99052.84;5036694;28;20047;-54
2023/01/29 10:38:49;;;;;;;161.82;11.65;;;;;;;5.91;100.00;99055.78;5035736;28;20505;-56
2023/01/29 10:41:30;;;;;;;151.95;8.32;;;;;;;4.93;100.00;99057.56;5036586;28;20044;-56
2023/01/29 10:44:28;;;;;;;163.80;10.55;;;;;;;4.86;100.00;99073.66;5037185;28;20044;-57
2023/01/29 10:46:59;;;;;;;192.50;12.35;;;;;;;5.56;100.00;99070.94;5035198;28;20506;-55
2023/01/29 10:49:58;;;;;;;174.48;10.77;;;;;;;5.23;100.00;99066.38;5037750;28;20577;-57
2023/01/29 10:52:42;;;;;;;165.32;15.77;;;;;;;5.92;100.00;99059.22;5036421;28;20143;-55
2023/01/29 10:55:18;;;;;;;149.68;15.98;;;;;;;5.83;100.00;99055.50;5036211;28;20772;-55
2023/01/29 10:58:14;;;;;;;163.15;11.63;;;;;;;6.14;100.00;99050.50;5038414;28;20553;-54
2023/01/29 11:00:40;;;;;;;166.18;9.93;;;;;;;4.62;100.00;99044.44;5018824;28;20033;-58
2023/01/29 11:03:22;;;;;;;144.65;9.00;;;;;;;4.01;100.00;99042.09;5039860;28;20095;-55
2023/01/29 11:06:03;;;;;;;125.75;6.93;;;;;;;4.53;100.00;99023.47;5038204;28;20041;-56
2023/01/29 11:08:35;;;;;;;259.33;10.90;;;;;;;4.63;100.00;99022.09;5033205;28;20041;-56
2023/01/29 11:11:08;;;;;;;192.77;9.38;;;;;;;4.24;100.00;99011.25;5032759;28;20041;-56
2023/01/29 11:13:41;;;;;;;220.00;9.15;;;;;;;3.94;100.00;99006.66;5035102;28;20676;-55
2023/01/29 11:16:08;;;;;;;135.85;8.05;;;;;;;3.89;100.00;98997.84;5034933;28;20575;-57
2023/01/29 11:18:49;;;;;;;182.75;7.05;;;;;;;3.55;100.00;98993.91;5037008;28;20071;-56
2023/01/29 11:21:15;;;;;;;153.70;9.70;;;;;;;4.06;100.00;98985.66;5037390;28;20048;-56
2023/01/29 11:23:40;;;;;;;158.73;9.35;;;;;;;3.87;100.00;98979.75;5038116;28;20125;-57
2023/01/29 11:26:10;;;;;;;167.07;13.02;;;;;;;4.72;100.00;98973.50;5037564;28;20119;-56
2023/01/29 11:28:39;;;;;;;127.63;6.97;;;;;;;4.59;100.00;98967.00;5038826;28;20056;-57
2023/01/29 11:31:27;;;;;;;139.68;7.07;;;;;;;3.84;100.00;98961.66;5036410;28;20907;-58
2023/01/29 11:34:03;;;;;;;169.65;11.80;;;;;;;4.68;100.00;98961.31;5037916;28;20016;-56
2023/01/29 11:36:35;;;;;;;233.30;10.30;;;;;;;4.48;100.00;98946.00;5034595;28;20044;-56
2023/01/29 11:39:21;;;;;;;225.27;11.05;;;;;;;5.29;100.00;98947.91;5034432;28;20195;-55
2023/01/29 11:41:57;;;;;;;171.40;12.20;;;;;;;4.85;100.00;98945.56;5037218;28;20045;-57
2023/01/29 11:44:37;;;;;;;182.68;10.02;;;;;;;4.83;100.00;98942.94;5035694;28;20514;-56
2023/01/29 11:47:15;;;;;;;144.10;8.63;;;;;;;4.52;100.00;98949.56;5036864;28;20096;-55
2023/01/29 11:49:52;;;;;;;202.85;12.93;;;;;;;5.01;100.00;98942.69;5037562;28;20032;-56
2023/01/29 11:52:21;;;;;;;181.48;9.80;;;;;;;4.91;100.00;98938.06;5036090;28;20536;-57
2023/01/29 11:54:49;;;;;;;154.65;11.52;;;;;;;5.41;100.00;98935.41;5037064;28;20390;-55